Time;durP1;ratioP1;P1;durP2;ratioP2;P2;SDS_P1;SDS_P2;PMS_P1;PMS_P2;Temp;Humidity;BMP_temperature;BMP_pressure;BME280_temperature;BME280_humidity;BME280_pressure;Samples;Min_cycle;Max_cycle;Signal;HPM_P1;HPM_P2
2022/02/22 00:02:51;;;;;;;2.42;1.55;;;;;;;5.08;64.49;98837.99;1958677;90;31022;-76
2022/02/22 00:05:53;;;;;;;2.65;1.47;;;;;;;5.04;64.54;98851.02;1958732;90;32974;-68
2022/02/22 00:08:58;;;;;;;2.20;1.40;;;;;;;5.00;64.81;98860.94;1958712;90;29350;-67
2022/02/22 00:12:00;;;;;;;;;;;;;;;4.96;65.05;98874.84;1961151;90;27925;-72
2022/02/22 00:15:03;;;;;;;3.80;1.90;;;;;;;4.95;65.25;98881.53;1958765;90;28618;-67
2022/02/22 00:18:05;;;;;;;3.12;1.50;;;;;;;4.93;65.44;98896.66;1958731;90;31040;-70
2022/02/22 00:21:08;;;;;;;2.50;1.45;;;;;;;4.94;65.63;98900.59;1958191;90;32946;-66
2022/02/22 00:24:10;;;;;;;2.98;1.17;;;;;;;4.94;65.67;98903.69;1957364;90;29501;-69
2022/02/22 00:27:12;;;;;;;2.27;1.32;;;;;;;4.91;65.57;98917.98;1957760;90;27722;-72
2022/02/22 00:30:15;;;;;;;4.33;1.60;;;;;;;4.90;65.66;98926.00;1958177;90;28640;-71
2022/02/22 00:33:17;;;;;;;2.20;1.30;;;;;;;4.89;65.60;98932.23;1957903;90;31118;-72
2022/02/22 00:36:19;;;;;;;2.12;1.52;;;;;;;4.88;65.80;98930.55;1948462;90;32916;-69
2022/02/22 00:39:22;;;;;;;4.62;1.30;;;;;;;4.86;65.73;98940.77;1944002;91;29214;-68
2022/02/22 00:42:25;;;;;;;2.25;1.20;;;;;;;4.85;65.78;98945.68;1944917;91;27788;-72
2022/02/22 00:45:28;;;;;;;2.65;1.67;;;;;;;4.84;65.95;98951.91;1945134;91;28747;-73
2022/02/22 00:48:30;;;;;;;2.17;1.30;;;;;;;4.83;66.04;98961.26;1944719;91;31094;-74
2022/02/22 00:51:31;;;;;;;2.65;1.72;;;;;;;4.81;66.33;98971.95;1945011;91;32902;-72
2022/02/22 00:54:33;;;;;;;2.25;1.40;;;;;;;4.79;66.51;98981.78;1944977;91;29306;-75
2022/02/22 00:57:37;;;;;;;2.70;1.42;;;;;;;4.77;67.10;98997.38;1945045;91;27639;-76
2022/02/22 01:00:39;;;;;;;2.85;1.15;;;;;;;4.68;66.72;99002.17;1945053;91;28738;-74
2022/02/22 01:03:41;;;;;;;5.67;1.90;;;;;;;4.50;66.51;98990.64;1945039;90;30990;-72
2022/02/22 01:06:42;;;;;;;4.78;1.70;;;;;;;4.51;66.72;99007.39;1944964;90;32964;-75
2022/02/22 01:09:47;;;;;;;2.47;1.30;;;;;;;4.45;66.87;99019.14;1945026;91;29311;-70
2022/02/22 01:12:49;;;;;;;3.72;1.70;;;;;;;4.39;66.80;99024.27;1945324;90;27726;-70
2022/02/22 01:15:50;;;;;;;5.97;1.42;;;;;;;4.36;67.10;99024.87;1945072;91;28649;-73
2022/02/22 01:18:52;;;;;;;3.12;1.47;;;;;;;4.34;67.06;99032.87;1945176;90;31020;-72
2022/02/22 01:21:54;;;;;;;3.47;1.15;;;;;;;4.32;67.05;99037.87;1945055;91;32998;-67
2022/02/22 01:24:56;;;;;;;2.77;1.67;;;;;;;4.31;67.25;99050.24;1945133;91;29388;-68
2022/02/22 01:27:58;;;;;;;3.83;1.50;;;;;;;4.30;67.40;99048.55;1945295;91;27723;-74
2022/02/22 01:31:29;;;;;;;6.90;1.87;;;;;;;4.28;67.47;99053.05;1947748;85;28633;31
2022/02/22 01:34:31;;;;;;;8.20;1.95;;;;;;;4.23;67.40;99067.81;1867673;95;31290;-67
2022/02/22 01:37:33;;;;;;;8.45;1.50;;;;;;;4.19;67.52;99073.32;1894716;93;33006;-67
2022/02/22 01:40:35;;;;;;;5.65;1.42;;;;;;;4.18;67.74;99078.22;1882790;93;30042;-68
2022/02/22 01:43:41;;;;;;;5.30;1.45;;;;;;;4.18;67.82;99086.17;1848760;93;27811;-68
2022/02/22 01:47:02;;;;;;;5.75;1.50;;;;;;;4.17;67.80;99087.09;1885902;93;28690;-67
2022/02/22 01:50:08;;;;;;;6.70;2.52;;;;;;;4.17;67.76;99093.72;1870656;93;31197;-67
2022/02/22 01:53:09;;;;;;;6.33;1.82;;;;;;;4.17;67.94;99095.05;1858305;95;33062;-67
2022/02/22 01:56:12;;;;;;;8.20;2.30;;;;;;;4.15;67.83;99093.80;1850872;95;29341;-67
2022/02/22 01:59:14;;;;;;;5.25;1.80;;;;;;;4.15;67.99;99096.45;1852229;95;27795;-67
2022/02/22 02:02:16;;;;;;;9.80;2.35;;;;;;;4.17;68.04;99096.38;1845100;95;28699;-67
2022/02/22 02:05:18;;;;;;;3.98;1.45;;;;;;;4.16;68.02;99106.13;1867579;95;31065;-67
2022/02/22 02:08:20;;;;;;;8.78;2.50;;;;;;;4.14;67.89;99111.95;1855179;95;32982;-67
2022/02/22 02:11:22;;;;;;;3.75;1.60;;;;;;;4.13;67.87;99122.16;1865597;94;30098;-67
2022/02/22 02:14:25;;;;;;;6.00;2.08;;;;;;;4.10;67.93;99120.95;1929358;91;27722;-67
2022/02/22 02:17:27;;;;;;;5.80;2.15;;;;;;;4.08;67.91;99120.16;1896071;93;28678;-67
2022/02/22 02:20:28;;;;;;;2.92;1.67;;;;;;;4.04;67.96;99119.44;1911862;92;31073;-67
2022/02/22 02:23:30;;;;;;;8.50;2.35;;;;;;;4.05;68.04;99126.94;1920947;91;32904;-67
2022/02/22 02:26:32;;;;;;;7.97;2.10;;;;;;;4.06;68.10;99132.60;1942056;91;29337;-67
2022/02/22 02:29:34;;;;;;;4.80;1.87;;;;;;;4.04;68.22;99137.98;1940752;91;27695;-68
2022/02/22 02:32:36;;;;;;;7.33;2.37;;;;;;;4.05;68.19;99150.31;1928038;90;29326;-67
2022/02/22 02:35:38;;;;;;;7.97;2.58;;;;;;;4.06;68.29;99151.16;1956458;90;31809;-67
2022/02/22 02:38:41;;;;;;;5.10;2.47;;;;;;;4.06;68.49;99156.02;1936348;90;32952;-68
2022/02/22 02:41:44;;;;;;;3.77;2.20;;;;;;;4.05;68.54;99162.23;1927767;90;29376;-67
2022/02/22 02:44:48;;;;;;;10.90;2.27;;;;;;;4.04;68.66;99164.48;1946815;90;27644;-67
2022/02/22 02:47:50;;;;;;;8.10;2.20;;;;;;;4.06;68.71;99168.38;1959132;90;28671;-67
2022/02/22 02:50:51;;;;;;;5.58;2.15;;;;;;;4.07;68.76;99178.06;1947961;90;31066;-68
2022/02/22 02:53:55;;;;;;;5.17;1.77;;;;;;;4.09;68.87;99178.86;1900903;92;32973;-67
2022/02/22 02:56:56;;;;;;;5.35;2.05;;;;;;;4.07;68.87;99185.56;1916914;91;29999;-68
2022/02/22 02:59:58;;;;;;;7.78;2.20;;;;;;;4.07;68.98;99182.91;1959191;90;27550;-68
2022/02/22 03:02:59;;;;;;;4.90;1.87;;;;;;;4.04;69.04;99184.36;1958050;90;28629;-68
2022/02/22 03:06:01;;;;;;;6.22;2.37;;;;;;;4.05;69.09;99179.94;1938882;90;31025;-69
2022/02/22 03:09:03;;;;;;;8.43;2.52;;;;;;;4.04;69.15;99184.84;1942853;90;33605;-68
2022/02/22 03:12:06;;;;;;;9.65;2.58;;;;;;;4.02;69.18;99186.20;1892452;92;30142;-68
2022/02/22 03:15:09;;;;;;;5.58;2.20;;;;;;;4.03;69.23;99185.28;1929450;90;27773;-67
2022/02/22 03:18:10;;;;;;;5.72;2.60;;;;;;;4.04;69.27;99183.52;1959642;90;29440;-66
2022/02/22 03:21:12;;;;;;;9.63;2.62;;;;;;;4.03;69.28;99185.77;1944299;90;31046;-67
2022/02/22 03:24:14;;;;;;;10.38;2.37;;;;;;;4.03;69.36;99197.20;1894133;92;32985;-68
2022/02/22 03:27:16;;;;;;;7.53;3.17;;;;;;;4.01;69.51;99207.00;1951800;90;29346;-67
2022/02/22 03:30:17;;;;;;;7.30;2.30;;;;;;;3.98;69.45;99204.95;1959548;90;27656;-67
2022/02/22 03:33:20;;;;;;;8.83;2.45;;;;;;;3.95;69.56;99207.27;1935033;90;28656;-67
2022/02/22 03:36:22;;;;;;;6.47;2.22;;;;;;;3.93;69.70;99210.44;1916820;91;31797;-66
2022/02/22 03:39:24;;;;;;;7.28;2.62;;;;;;;3.93;69.86;99206.47;1915668;91;33669;-67
2022/02/22 03:42:26;;;;;;;10.13;2.33;;;;;;;3.90;69.81;99211.88;1882602;94;30000;-67
2022/02/22 03:45:27;;;;;;;7.08;2.77;;;;;;;3.89;69.84;99213.65;1883123;93;27842;-67
2022/02/22 03:48:29;;;;;;;7.22;2.10;;;;;;;3.89;70.08;99218.10;1905328;93;28666;-67
2022/02/22 03:51:31;;;;;;;8.28;2.05;;;;;;;3.88;69.98;99227.84;1938698;91;31061;-67
2022/02/22 03:54:32;;;;;;;7.20;1.87;;;;;;;3.90;70.10;99225.98;1883676;93;32961;-66
2022/02/22 03:57:35;;;;;;;9.83;2.25;;;;;;;3.91;70.17;99229.03;1910903;93;29342;-67
2022/02/22 04:00:36;;;;;;;7.95;1.77;;;;;;;3.91;70.15;99230.83;1883670;93;27662;-67
2022/02/22 04:03:38;;;;;;;6.60;1.65;;;;;;;3.91;70.16;99238.30;1912580;93;28678;-69
2022/02/22 04:06:39;;;;;;;6.65;2.08;;;;;;;3.92;70.13;99242.67;1873410;94;31038;-67
2022/02/22 04:09:41;;;;;;;5.60;2.20;;;;;;;3.95;70.19;99244.37;1907141;92;32965;-69
2022/02/22 04:12:43;;;;;;;11.73;1.90;;;;;;;3.97;70.28;99250.92;1918429;92;29980;-68
2022/02/22 04:15:45;;;;;;;5.58;2.08;;;;;;;4.00;70.29;99260.08;1896193;92;27786;-69
2022/02/22 04:18:46;;;;;;;5.67;1.90;;;;;;;4.00;70.26;99258.27;1885003;93;28738;-68
2022/02/22 04:21:48;;;;;;;8.15;2.40;;;;;;;4.01;70.25;99270.60;1909250;92;30752;-68
2022/02/22 04:24:50;;;;;;;10.15;2.33;;;;;;;4.01;70.31;99271.92;1915864;92;33004;-66
2022/02/22 04:27:52;;;;;;;4.25;1.80;;;;;;;4.00;70.48;99286.58;1915336;92;29431;-67
2022/02/22 04:30:54;;;;;;;7.42;1.75;;;;;;;3.99;70.44;99295.45;1919581;91;27631;-66
2022/02/22 04:33:56;;;;;;;6.67;1.90;;;;;;;4.02;70.52;99296.66;1947075;89;28663;-67
2022/02/22 04:36:57;;;;;;;8.98;1.98;;;;;;;4.04;70.60;99305.42;1952404;91;31082;-67
2022/02/22 04:40:00;;;;;;;6.62;3.17;;;;;;;4.04;70.54;99314.70;1952525;91;32989;-67
2022/02/22 04:43:02;;;;;;;4.85;1.85;;;;;;;4.02;70.63;99317.38;1930031;91;29345;-68
2022/02/22 04:46:04;;;;;;;9.98;2.70;;;;;;;4.00;70.61;99320.55;1925792;92;27712;-67
2022/02/22 04:49:09;;;;;;;7.53;2.17;;;;;;;3.98;70.74;99327.69;1925322;92;28884;-67
2022/02/22 04:52:09;;;;;;;7.65;2.17;;;;;;;3.97;70.84;99333.95;1939988;91;31083;-67
2022/02/22 04:55:11;;;;;;;4.30;2.42;;;;;;;3.99;70.95;99341.82;1952501;91;33001;-69
2022/02/22 04:58:13;;;;;;;8.28;2.52;;;;;;;4.01;71.02;99346.13;1952632;91;30039;-68
2022/02/22 05:01:14;;;;;;;7.03;2.50;;;;;;;4.05;71.04;99350.40;1946551;91;28334;-68
2022/02/22 05:04:16;;;;;;;8.85;2.65;;;;;;;4.09;71.13;99355.11;1925684;92;28645;-67
2022/02/22 05:07:18;;;;;;;8.80;2.70;;;;;;;4.14;71.11;99357.61;1925699;92;31059;-67
2022/02/22 05:10:20;;;;;;;7.30;2.87;;;;;;;4.18;71.14;99360.52;1925646;92;32986;-67
2022/02/22 05:13:21;;;;;;;6.42;3.05;;;;;;;4.21;71.15;99356.44;1950076;91;29346;-67
2022/02/22 05:16:24;;;;;;;6.70;3.10;;;;;;;4.25;71.13;99368.66;1952319;91;27732;-69
2022/02/22 05:19:25;;;;;;;8.80;2.40;;;;;;;4.28;71.12;99365.01;1952573;91;28663;-68
2022/02/22 05:22:27;;;;;;;18.45;6.85;;;;;;;4.29;71.19;99371.59;1936713;91;31685;-67
2022/02/22 05:25:29;;;;;;;16.10;7.10;;;;;;;4.30;71.26;99377.30;1925633;91;32956;-68
2022/02/22 05:28:30;;;;;;;13.58;3.72;;;;;;;4.32;71.25;99378.08;1925600;92;29385;-68
2022/02/22 05:31:32;;;;;;;5.58;2.42;;;;;;;4.34;71.24;99372.26;1933050;91;27665;-68
2022/02/22 05:34:35;;;;;;;8.75;2.70;;;;;;;4.35;71.25;99373.98;1954986;91;29286;-67
2022/02/22 05:37:37;;;;;;;7.65;2.35;;;;;;;4.38;71.26;99384.96;1956965;91;31141;-68
2022/02/22 05:40:39;;;;;;;6.65;2.60;;;;;;;4.40;71.25;99391.03;1957423;91;32968;-68
2022/02/22 05:43:41;;;;;;;11.18;2.67;;;;;;;4.41;71.31;99399.40;1928447;91;29328;-69
2022/02/22 05:46:43;;;;;;;8.15;3.35;;;;;;;4.42;71.32;99394.50;1928737;92;27724;-68
2022/02/22 05:49:46;;;;;;;9.55;2.98;;;;;;;4.43;71.34;99402.01;1928931;92;29316;-67
2022/02/22 05:52:48;;;;;;;6.87;2.52;;;;;;;4.44;71.43;99411.70;1916096;92;31740;-68
2022/02/22 05:55:49;;;;;;;6.95;2.05;;;;;;;4.45;71.39;99404.14;1948216;91;32932;-67
2022/02/22 05:58:52;;;;;;;5.72;2.30;;;;;;;4.46;71.35;99408.05;1956939;91;29286;-67
2022/02/22 06:01:54;;;;;;;4.45;2.20;;;;;;;4.49;71.45;99421.64;1924197;91;27784;-67
2022/02/22 06:04:56;;;;;;;8.58;2.27;;;;;;;4.51;71.45;99415.81;1928338;92;28677;-67
2022/02/22 06:07:57;;;;;;;5.72;2.55;;;;;;;4.54;71.46;99420.56;1924211;92;31673;-67
2022/02/22 06:10:59;;;;;;;6.85;2.08;;;;;;;4.58;71.49;99426.61;1899663;93;32931;-68
2022/02/22 06:14:01;;;;;;;7.87;2.20;;;;;;;4.62;71.46;99435.30;1877782;94;29309;-67
2022/02/22 06:17:03;;;;;;;6.75;2.40;;;;;;;4.64;71.42;99440.08;1907911;93;27743;-67
2022/02/22 06:20:08;;;;;;;5.55;3.12;;;;;;;4.66;71.46;99447.53;1927976;92;29310;-67
2022/02/22 06:23:10;;;;;;;5.53;2.52;;;;;;;4.70;71.46;99461.93;1950054;91;31181;-67
2022/02/22 06:26:11;;;;;;;7.50;2.65;;;;;;;4.72;71.36;99457.88;1957367;90;33650;-67
2022/02/22 06:29:13;;;;;;;4.72;2.05;;;;;;;4.75;71.38;99464.39;1957169;91;29353;-66
2022/02/22 06:32:15;;;;;;;5.22;1.85;;;;;;;4.78;71.33;99463.44;1945173;91;28038;-66
2022/02/22 06:35:18;;;;;;;3.67;1.87;;;;;;;4.83;71.35;99476.03;1919133;91;28822;-67
2022/02/22 06:38:20;;;;;;;9.13;2.00;;;;;;;4.86;71.31;99487.42;1897075;93;31120;-66
2022/02/22 06:41:22;;;;;;;4.67;2.00;;;;;;;4.90;71.24;99483.29;1917957;91;33099;-67
2022/02/22 06:44:24;;;;;;;6.42;2.45;;;;;;;4.94;71.16;99491.54;1898479;93;29342;-67
2022/02/22 06:47:25;;;;;;;6.87;2.72;;;;;;;4.99;71.19;99496.22;1925598;92;27720;-67
2022/02/22 06:50:27;;;;;;;10.30;2.20;;;;;;;5.08;71.20;99500.30;1918857;92;29348;-68
2022/02/22 06:53:29;;;;;;;10.45;2.15;;;;;;;5.14;71.12;99510.65;1897304;92;31103;-66
2022/02/22 06:56:30;;;;;;;5.12;2.00;;;;;;;5.19;71.05;99510.48;1915770;92;33025;-68
2022/02/22 06:59:32;;;;;;;7.97;2.10;;;;;;;5.25;71.04;99511.10;1883154;94;29333;-69
2022/02/22 07:02:34;;;;;;;6.10;2.30;;;;;;;5.33;71.06;99516.09;1889407;93;28224;-67
2022/02/22 07:05:37;;;;;;;6.30;2.37;;;;;;;5.44;71.01;99511.20;1929674;92;28668;-69
2022/02/22 07:08:38;;;;;;;6.53;2.70;;;;;;;5.58;70.94;99515.07;1925757;92;31067;-67
2022/02/22 07:11:40;;;;;;;9.53;2.55;;;;;;;5.70;70.79;99516.36;1916141;92;32977;-68
2022/02/22 07:14:42;;;;;;;4.42;2.58;;;;;;;5.81;70.69;99523.88;1915898;92;30012;-67
2022/02/22 07:17:47;;;;;;;4.53;2.35;;;;;;;5.95;70.53;99524.62;1882810;94;27710;-67
2022/02/22 07:20:48;;;;;;;7.53;2.20;;;;;;;6.13;70.41;99525.16;1882884;93;28858;-68
2022/02/22 07:23:50;;;;;;;5.92;2.20;;;;;;;6.38;70.29;99538.23;1896153;93;31703;-67
2022/02/22 07:26:53;;;;;;;7.83;2.22;;;;;;;6.60;70.08;99535.95;1944751;91;33610;-67
2022/02/22 07:29:54;;;;;;;7.45;1.95;;;;;;;6.83;69.83;99546.86;1944611;91;29365;-68
2022/02/22 07:33:00;;;;;;;8.25;2.50;;;;;;;6.92;69.28;99550.05;1929921;91;27670;-70
2022/02/22 07:36:02;;;;;;;7.40;1.90;;;;;;;7.04;69.23;99567.23;1888614;93;29577;-69
2022/02/22 07:39:05;;;;;;;8.20;2.05;;;;;;;7.12;68.78;99563.27;1920818;92;31224;-69
2022/02/22 07:42:07;;;;;;;7.03;2.35;;;;;;;7.20;68.49;99568.71;1893090;93;33060;-67
2022/02/22 07:45:09;;;;;;;4.55;2.60;;;;;;;7.27;68.62;99576.34;1937245;91;29338;-70
2022/02/22 07:48:11;;;;;;;6.85;2.22;;;;;;;7.35;68.33;99581.30;1937470;91;27698;-68
2022/02/22 07:51:16;;;;;;;7.33;2.50;;;;;;;7.39;68.29;99586.88;1930976;92;28733;-68
2022/02/22 07:54:18;;;;;;;6.70;2.60;;;;;;;7.39;68.17;99582.89;1907137;92;31066;-69
2022/02/22 07:57:21;;;;;;;6.50;2.27;;;;;;;7.41;67.94;99597.00;1925704;92;33036;-68
2022/02/22 08:00:23;;;;;;;7.22;2.02;;;;;;;7.46;68.01;99602.11;1925693;92;29981;-67
2022/02/22 08:03:25;;;;;;;7.12;2.22;;;;;;;7.48;67.77;99602.90;1941816;91;27719;-67
2022/02/22 08:06:26;;;;;;;6.45;1.92;;;;;;;7.49;67.54;99611.30;1906262;93;29325;-67
2022/02/22 08:09:28;;;;;;;6.72;2.10;;;;;;;7.50;67.53;99625.02;1930838;92;31175;-67
2022/02/22 08:12:30;;;;;;;3.70;1.82;;;;;;;7.51;67.42;99613.42;1919887;92;33710;-67
2022/02/22 08:15:32;;;;;;;5.87;2.90;;;;;;;7.49;67.07;99618.41;1921545;92;29325;-67
2022/02/22 08:18:34;;;;;;;9.18;2.33;;;;;;;7.45;67.11;99629.69;1927313;92;27754;-68
2022/02/22 08:21:35;;;;;;;8.10;3.25;;;;;;;7.43;67.31;99633.77;1928583;92;28823;-67
2022/02/22 08:24:37;;;;;;;7.35;1.98;;;;;;;7.47;67.31;99637.59;1927971;92;31058;-68
2022/02/22 08:27:39;;;;;;;4.37;2.12;;;;;;;7.51;67.38;99647.19;1928416;92;33075;-70
2022/02/22 08:30:41;;;;;;;8.55;2.10;;;;;;;7.56;67.25;99640.70;1872351;95;29965;-70
2022/02/22 08:33:42;;;;;;;6.47;2.45;;;;;;;7.58;67.10;99639.30;1910629;92;27759;-68
2022/02/22 08:36:44;;;;;;;5.42;2.05;;;;;;;7.59;67.10;99647.22;1910323;92;28670;-69
2022/02/22 08:39:46;;;;;;;4.83;2.20;;;;;;;7.59;66.83;99664.55;1959027;90;31094;-67
2022/02/22 08:42:48;;;;;;;4.90;2.40;;;;;;;7.54;67.19;99667.03;1947541;90;33066;-68
2022/02/22 08:45:50;;;;;;;4.40;1.87;;;;;;;7.51;67.33;99675.17;1927418;92;29348;-70
2022/02/22 08:48:51;;;;;;;8.85;2.60;;;;;;;7.45;67.44;99677.17;1927647;92;27758;-71
2022/02/22 08:51:53;;;;;;;7.10;2.50;;;;;;;7.44;67.56;99679.92;1927923;90;28663;-68
2022/02/22 08:54:55;;;;;;;8.73;2.77;;;;;;;7.33;67.29;99698.23;1926723;92;31040;-69
2022/02/22 08:57:58;;;;;;;11.95;2.77;;;;;;;7.22;67.17;99697.38;1938676;91;32987;-68
2022/02/22 09:01:00;;;;;;;13.15;2.70;;;;;;;7.12;66.82;99703.10;1923790;92;29998;-70
2022/02/22 09:04:02;;;;;;;14.95;3.45;;;;;;;6.98;66.40;99709.52;1931198;90;27706;-69
2022/02/22 09:07:04;;;;;;;18.17;3.27;;;;;;;6.91;66.46;99710.26;1927567;92;29545;-70
2022/02/22 09:10:07;;;;;;;28.98;8.38;;;;;;;6.89;66.53;99721.92;1927500;91;31066;-69
2022/02/22 09:13:09;;;;;;;16.45;6.12;;;;;;;6.92;66.73;99731.96;1941866;90;33949;-68
2022/02/22 09:16:11;;;;;;;22.45;4.97;;;;;;;6.93;66.42;99732.36;1955900;90;29942;-69
2022/02/22 09:19:13;;;;;;;17.60;5.53;;;;;;;6.92;66.52;99737.77;1923971;92;27803;-69
2022/02/22 09:22:16;;;;;;;17.37;4.78;;;;;;;6.91;66.37;99743.55;1939696;90;28778;-69
2022/02/22 09:25:22;;;;;;;15.98;3.83;;;;;;;6.92;66.45;99741.28;1927252;91;31961;-71
2022/02/22 09:28:24;;;;;;;18.87;4.37;;;;;;;6.94;65.83;99749.22;1927391;92;32973;-68
2022/02/22 09:31:26;;;;;;;14.75;3.40;;;;;;;6.98;65.62;99765.44;1913962;92;30811;-68
2022/02/22 09:34:31;;;;;;;24.47;4.08;;;;;;;7.03;65.75;99766.12;1953832;90;27637;-72
2022/02/22 09:37:33;;;;;;;16.95;4.95;;;;;;;7.13;65.68;99759.44;1957551;90;28697;-69
2022/02/22 09:40:35;;;;;;;23.83;6.85;;;;;;;7.21;65.19;99772.42;1938495;90;31151;-71
2022/02/22 09:43:37;;;;;;;24.85;6.20;;;;;;;7.26;65.22;99776.23;1940978;91;33011;-71
2022/02/22 09:46:38;;;;;;;22.62;6.72;;;;;;;7.22;64.55;99775.97;1927869;92;29339;-70
2022/02/22 09:49:40;;;;;;;19.15;4.70;;;;;;;7.24;64.27;99776.77;1907910;92;27794;-71
2022/02/22 09:52:42;;;;;;;15.18;4.65;;;;;;;7.26;63.47;99789.08;1934569;91;29403;-70
2022/02/22 09:55:44;;;;;;;20.02;4.37;;;;;;;7.27;63.51;99788.63;1957287;91;31639;-70
2022/02/22 09:58:46;;;;;;;17.40;4.10;;;;;;;7.32;63.25;99794.59;1957276;90;33669;-70
2022/02/22 10:01:51;;;;;;;17.30;4.45;;;;;;;7.37;62.91;99805.05;1957513;91;29324;-66
2022/02/22 10:04:53;;;;;;;17.73;4.90;;;;;;;7.36;62.06;99812.67;1929621;91;27784;-68
2022/02/22 10:08:04;;;;;;;22.02;5.37;;;;;;;7.30;61.61;99812.00;1927976;91;28822;-70
2022/02/22 10:11:09;;;;;;;22.25;4.85;;;;;;;7.29;61.43;99814.27;1927864;92;31146;-67
2022/02/22 10:14:13;;;;;;;16.30;4.35;;;;;;;7.34;61.34;99819.86;1948463;91;33003;-69
2022/02/22 10:17:17;;;;;;;22.05;5.55;;;;;;;7.39;61.19;99813.39;1957689;90;29977;-68
2022/02/22 10:20:19;;;;;;;21.95;5.30;;;;;;;7.51;60.58;99814.65;1957381;91;27714;-70
2022/02/22 10:23:30;;;;;;;23.65;7.12;;;;;;;7.67;60.80;99822.80;1946014;90;29757;-71
2022/02/22 10:26:32;;;;;;;23.90;6.40;;;;;;;7.83;60.23;99824.31;1928276;92;31038;-68
2022/02/22 10:29:36;;;;;;;23.35;5.62;;;;;;;8.09;59.74;99824.04;1923732;92;33588;-69
2022/02/22 10:32:40;;;;;;;26.80;6.15;;;;;;;8.26;58.33;99821.44;1896542;93;29468;-71
2022/02/22 10:35:46;;;;;;;20.27;5.67;;;;;;;8.52;59.24;99826.00;1882070;93;27741;-70
2022/02/22 10:38:48;;;;;;;14.38;4.80;;;;;;;8.84;58.64;99817.34;1920748;92;28802;-69
2022/02/22 10:41:54;;;;;;;24.57;6.17;;;;;;;9.15;58.10;99837.16;1890332;94;31115;-69
2022/02/22 10:44:56;;;;;;;21.40;6.50;;;;;;;9.27;57.67;99843.20;1903142;92;33833;-69
2022/02/22 10:47:57;;;;;;;24.82;11.90;;;;;;;9.31;57.49;99867.50;1897972;93;29932;-69
2022/02/22 10:51:02;;;;;;;45.80;17.00;;;;;;;9.25;57.26;99858.00;1901261;93;27770;-69
2022/02/22 10:54:04;;;;;;;38.25;12.93;;;;;;;9.28;56.85;99863.64;1923092;91;28353;-70
2022/02/22 10:57:05;;;;;;;18.67;5.35;;;;;;;9.27;56.70;99861.42;1931611;92;31690;-70
2022/02/22 11:00:11;;;;;;;29.15;11.25;;;;;;;9.30;55.76;99867.11;1929303;92;33039;-68
2022/02/22 11:03:13;;;;;;;24.85;6.78;;;;;;;9.35;55.50;99875.73;1921635;92;29327;-69
2022/02/22 11:06:15;;;;;;;22.98;8.05;;;;;;;9.38;54.60;99865.38;1900366;93;27559;-68
2022/02/22 11:09:18;;;;;;;21.65;7.70;;;;;;;9.23;54.74;99871.91;1926330;92;29323;-69
2022/02/22 11:12:34;;;;;;;16.70;6.55;;;;;;;9.17;54.78;99870.87;1925970;92;31189;-68
2022/02/22 11:15:39;;;;;;;18.25;5.90;;;;;;;9.17;53.91;99871.36;1925696;92;33012;-69
2022/02/22 11:18:54;;;;;;;17.23;5.47;;;;;;;9.19;53.63;99875.67;1925457;92;29551;-69
2022/02/22 11:21:57;;;;;;;7.63;2.57;;;;;;;9.28;53.63;99881.02;1925950;92;27800;-69
2022/02/22 11:25:01;;;;;;;16.37;4.20;;;;;;;9.41;53.27;99883.45;1951071;91;28758;-70
2022/02/22 11:28:09;;;;;;;12.55;3.87;;;;;;;9.51;53.37;99887.00;1906099;93;31094;-68
2022/02/22 11:31:14;;;;;;;10.45;3.20;;;;;;;9.62;52.72;99879.73;1930863;92;33680;-68
2022/02/22 11:34:16;;;;;;;13.35;4.55;;;;;;;9.70;53.28;99886.89;1911125;92;29438;-68
2022/02/22 11:37:33;;;;;;;18.25;3.95;;;;;;;9.77;52.84;99892.29;1898725;92;27803;-68
2022/02/22 11:40:34;;;;;;;15.80;3.60;;;;;;;9.74;52.43;99887.13;1899232;93;28734;-68
2022/02/22 11:43:36;;;;;;;14.90;4.80;;;;;;;9.72;52.38;99891.69;1909950;92;31070;-69
2022/02/22 11:46:42;;;;;;;27.42;10.98;;;;;;;9.78;52.23;99903.38;1928206;92;33604;-69
2022/02/22 11:49:53;;;;;;;24.85;8.88;;;;;;;9.79;52.23;99896.23;1928256;92;29488;-69
2022/02/22 11:52:55;;;;;;;34.63;13.58;;;;;;;9.75;52.72;99912.05;1924897;92;27756;-68
2022/02/22 11:55:59;;;;;;;30.68;12.28;;;;;;;9.63;52.92;99917.11;1899699;93;29568;-68
2022/02/22 11:59:01;;;;;;;32.17;13.87;;;;;;;9.52;52.98;99939.50;1899985;93;31740;-68
2022/02/22 12:02:03;;;;;;;26.60;14.90;;;;;;;9.32;53.69;99945.88;1899566;93;32963;-67
2022/02/22 12:05:28;;;;;;;22.40;12.00;;;;;;;9.10;54.38;99953.64;1923901;92;29362;-69
2022/02/22 12:08:41;;;;;;;16.87;6.95;;;;;;;8.93;54.66;99951.33;1927913;92;27786;-69
2022/02/22 12:11:46;;;;;;;15.72;3.47;;;;;;;8.69;54.98;99943.14;1928332;92;29874;-70
2022/02/22 12:14:56;;;;;;;14.43;4.15;;;;;;;8.61;55.46;99940.84;1907607;92;32690;-71
2022/02/22 12:17:59;;;;;;;14.18;4.00;;;;;;;8.53;55.70;99942.53;1899805;93;33141;-70
2022/02/22 12:21:01;;;;;;;26.27;11.53;;;;;;;8.46;56.06;99934.38;1899729;93;29996;-69
2022/02/22 12:24:08;;;;;;;13.80;4.17;;;;;;;8.37;56.26;99939.67;1913428;92;27881;-69
2022/02/22 12:27:15;;;;;;;10.20;3.50;;;;;;;8.28;56.11;99946.30;1928374;92;29500;-69
2022/02/22 12:30:17;;;;;;;12.78;6.17;;;;;;;8.31;56.83;99950.16;1928384;92;31065;-68
2022/02/22 12:33:23;;;;;;;15.28;4.28;;;;;;;8.46;57.18;99950.39;1922172;92;32981;-68
2022/02/22 12:36:26;;;;;;;20.12;5.50;;;;;;;8.59;56.62;99958.73;1902127;90;29959;-67
2022/02/22 12:39:32;;;;;;;20.48;5.33;;;;;;;8.72;56.17;99953.20;1959589;90;27695;-68
2022/02/22 12:42:33;;;;;;;12.98;5.58;;;;;;;8.93;56.44;99954.00;1946802;90;29708;-70
2022/02/22 12:45:43;;;;;;;11.12;3.40;;;;;;;9.13;56.40;99964.16;1959407;90;31913;-68
2022/02/22 12:48:46;;;;;;;16.75;3.45;;;;;;;9.37;56.02;99963.41;1959587;90;32991;-67
2022/02/22 12:51:49;;;;;;;13.72;4.75;;;;;;;9.65;55.92;99963.82;1951399;90;29340;-70
2022/02/22 12:54:51;;;;;;;10.58;2.72;;;;;;;9.91;55.50;99971.84;1904876;93;27657;-68
2022/02/22 12:58:05;;;;;;;11.15;2.95;;;;;;;10.04;54.89;99972.91;1929870;91;28661;-72
2022/02/22 13:01:15;;;;;;;11.97;2.85;;;;;;;10.18;54.48;99965.96;1904853;93;31727;-71
2022/02/22 13:04:25;;;;;;;11.12;2.52;;;;;;;10.27;53.83;99964.60;1932267;91;32983;-68
2022/02/22 13:07:27;;;;;;;20.10;6.70;;;;;;;10.30;52.55;99975.16;1893324;93;29500;-70
2022/02/22 13:10:42;;;;;;;12.80;3.65;;;;;;;10.34;52.76;99980.74;1928969;92;27729;-68
2022/02/22 13:13:47;;;;;;;25.68;7.87;;;;;;;10.28;52.32;99988.63;1926784;90;28775;-68
2022/02/22 13:17:01;;;;;;;14.98;4.53;;;;;;;10.21;52.14;99993.91;1851867;95;28581;-69
2022/02/22 13:20:04;;;;;;;13.65;4.20;;;;;;;10.24;51.74;99995.58;1855456;95;33126;-68
2022/02/22 13:23:11;;;;;;;17.05;5.80;;;;;;;10.29;52.03;99983.67;1858945;95;29349;-69
2022/02/22 13:26:13;;;;;;;17.40;5.30;;;;;;;10.27;51.57;99992.72;1808807;98;27833;-69
2022/02/22 13:29:16;;;;;;;14.40;3.70;;;;;;;10.13;51.51;99999.67;1822128;97;28691;-67
2022/02/22 13:32:20;;;;;;;23.12;7.37;;;;;;;10.03;51.88;100005.12;1819830;97;31083;-69
2022/02/22 13:35:23;;;;;;;18.82;7.78;;;;;;;9.94;51.69;100005.59;1865722;95;33726;-70
2022/02/22 13:38:30;;;;;;;27.52;6.40;;;;;;;9.82;51.73;100005.77;1865236;93;27922;-68
2022/02/22 13:41:37;;;;;;;22.70;4.58;;;;;;;9.72;51.93;100015.59;1864050;94;27772;-68
2022/02/22 13:44:39;;;;;;;11.90;2.55;;;;;;;9.66;51.09;100020.38;1821893;97;28757;-68
2022/02/22 13:47:42;;;;;;;11.95;3.77;;;;;;;9.57;51.18;100015.91;1827153;95;31094;-69
2022/02/22 13:50:44;;;;;;;10.78;2.80;;;;;;;9.51;51.79;100026.91;1828256;97;33050;-68
2022/02/22 13:53:49;;;;;;;10.13;3.50;;;;;;;9.41;51.70;100022.96;1844451;95;30019;-70
2022/02/22 13:56:57;;;;;;;12.90;3.27;;;;;;;9.27;51.95;100023.63;1855535;95;27803;-71
2022/02/22 14:00:00;;;;;;;11.38;2.50;;;;;;;9.16;52.07;100032.16;1855314;94;28662;-70
2022/02/22 14:03:03;;;;;;;9.98;2.25;;;;;;;9.01;52.27;100036.45;1814173;97;31055;-67
2022/02/22 14:06:05;;;;;;;6.80;2.50;;;;;;;8.84;52.26;100045.73;1808757;98;33000;-70
2022/02/22 14:09:08;;;;;;;14.55;5.33;;;;;;;8.65;52.53;100050.09;1822151;97;29356;-68
2022/02/22 14:12:09;;;;;;;16.48;4.37;;;;;;;8.44;52.61;100061.73;1826203;96;27881;-70
2022/02/22 14:15:11;;;;;;;14.07;5.35;;;;;;;8.20;52.81;100061.39;1875486;94;28805;-67
2022/02/22 14:18:14;;;;;;;7.22;3.50;;;;;;;8.00;52.96;100064.93;1913052;92;31079;-68
2022/02/22 14:21:18;;;;;;;13.98;4.95;;;;;;;7.82;53.16;100068.38;1846810;94;35233;-70
2022/02/22 14:24:21;;;;;;;9.15;2.90;;;;;;;7.64;53.38;100071.36;1827203;96;30136;-70
2022/02/22 14:27:23;;;;;;;19.50;6.10;;;;;;;7.48;53.35;100081.31;1859402;95;27848;-71